Robijn — PBEJ — position and weather

sailwx.info

Track history (hours):
 
Tides and Currents Weather Stations Pressure Air Temp Water Temp Dewpoint Dewpoint Depression Visibility Wind Speed Wind Dir Waves Ship Positions

Robijn

Last reported at 2014-Dec-22 11:34 UTC. Time now 2014-Dec-22 12:02 UTC.
Position N 53°26' E 014°35'.

Length 90 m; draft 4.8 m.

Type: Cargo ship. MMSI: 245909000.

Date/timePositionNaut miles runAvg speedWind from/ knotsBaromVisibWave heightAir tempDewpointWater temp
2014-Dec-22 11:34N 53°26' E 014°35'0 0.0
2014-Dec-22 10:34N 53°26' E 014°35'0 0.0
2014-Dec-22 09:33N 53°26' E 014°35'0 0.0
2014-Dec-22 08:34N 53°26' E 014°35'0 0.0
2014-Dec-22 07:34N 53°26' E 014°35'0 0.0
2014-Dec-22 06:33N 53°26' E 014°35'0 0.0
2014-Dec-22 05:33N 53°26' E 014°35'0 0.0
2014-Dec-22 04:34N 53°26' E 014°35'0 0.0
2014-Dec-22 03:34N 53°26' E 014°35'0 0.0
2014-Dec-22 02:34N 53°26' E 014°35'0 0.0
2014-Dec-22 01:34N 53°26' E 014°35'0 0.0
2014-Dec-22 00:32N 53°26' E 014°35'0 0.0
2014-Dec-21 23:33N 53°26' E 014°35'0 0.0
2014-Dec-21 22:33N 53°26' E 014°35'0 0.0
2014-Dec-21 21:34N 53°26' E 014°35'0 0.0
2014-Dec-21 20:34N 53°26' E 014°35'0 0.0
2014-Dec-21 19:34N 53°26' E 014°35'0 0.0
2014-Dec-21 18:34N 53°26' E 014°35'0 0.0
2014-Dec-21 17:34N 53°26' E 014°35'0 0.0
2014-Dec-21 16:33N 53°26' E 014°35'0 0.0
2014-Dec-21 15:34N 53°26' E 014°35'0 0.0
2014-Dec-21 14:33N 53°26' E 014°35'0 0.0
2014-Dec-21 13:33N 53°26' E 014°35'0 0.0
2014-Dec-21 12:34N 53°26' E 014°35'0 0.0
2014-Dec-21 11:34N 53°26' E 014°35'0 0.0
2014-Dec-21 10:34N 53°26' E 014°35'0 0.0
2014-Dec-21 09:34N 53°26' E 014°35'0 0.0
2014-Dec-21 08:33N 53°26' E 014°35'0 0.0
2014-Dec-21 07:34N 53°26' E 014°35'0 0.0
2014-Dec-21 06:34N 53°26' E 014°35'0 0.0
2014-Dec-21 05:34N 53°26' E 014°35'0 0.0
2014-Dec-21 04:33N 53°26' E 014°35'0 0.0
2014-Dec-21 03:34N 53°26' E 014°35'0 0.0
2014-Dec-21 02:34N 53°26' E 014°35'0 0.0
2014-Dec-21 01:34N 53°26' E 014°35'0 0.0
2014-Dec-21 00:34N 53°26' E 014°35'0 0.0
2014-Dec-20 23:33N 53°26' E 014°35'0 0.0
2014-Dec-20 22:34N 53°26' E 014°35'0 0.0
2014-Dec-20 21:34N 53°26' E 014°35'0 0.0
2014-Dec-20 20:34N 53°26' E 014°35'0 0.0
2014-Dec-20 19:34N 53°26' E 014°35'0 0.0
2014-Dec-20 18:33N 53°26' E 014°35'0 0.0
2014-Dec-20 17:34N 53°26' E 014°35'0 0.0
2014-Dec-20 16:34N 53°26' E 014°35'0 0.0
2014-Dec-20 15:33N 53°26' E 014°35'0 0.0
2014-Dec-20 14:33N 53°26' E 014°35'4 4.2
2014-Dec-20 13:33N 53°30' E 014°37'9 9.0
2014-Dec-20 12:33N 53°39' E 014°34'1010.0
2014-Dec-20 11:34N 53°46' E 014°23'9 8.7
2014-Dec-20 10:33N 53°54' E 014°15'9 8.8
2014-Dec-20 09:33N 54°02' E 014°14'10 9.7
2014-Dec-20 08:34N 54°12' E 014°11'10 8.7
2014-Dec-20 07:23N 54°19' E 013°58'50 8.1
2014-Dec-20 01:09N 54°34' E 012°36'910.0
2014-Dec-20 00:17N 54°32' E 012°21'7 9.9
2014-Dec-19 23:33N 54°27' E 012°13'1010.3
2014-Dec-19 22:34N 54°25' E 011°55'1010.4
2014-Dec-19 21:33N 54°27' E 011°38'1111.0
2014-Dec-19 20:33N 54°32' E 011°20'1110.7
2014-Dec-19 19:33N 54°34' E 011°02'1010.0
2014-Dec-19 18:33N 54°32' E 010°45'10 9.9
2014-Dec-19 17:34N 54°30' E 010°29'9 9.4
2014-Dec-19 16:33N 54°26' E 010°14'5 5.2
2014-Dec-19 15:34N 54°22' E 010°08'8 7.8
2014-Dec-19 14:34N 54°21' E 009°55'8 7.1
2014-Dec-19 13:29N 54°18' E 009°43'9 7.9
2014-Dec-19 12:19N 54°12' E 009°32'6 8.2
2014-Dec-19 11:32N 54°09' E 009°22'7 7.3
2014-Dec-19 10:33N 54°02' E 009°18'7 6.8
2014-Dec-19 09:34N 53°56' E 009°13'3 3.2
2014-Dec-19 08:33N 53°54' E 009°09'0 0.0
2014-Dec-19 07:34N 53°54' E 009°09'0 0.5
2014-Dec-19 06:33N 53°54' E 009°09'4 3.9
2014-Dec-19 05:34N 53°52' E 009°03'7 7.2
2014-Dec-19 04:33N 53°50' E 008°51'6 6.4
2014-Dec-19 03:33N 53°54' E 008°42'7 6.6
2014-Dec-19 02:33N 53°58' E 008°33'7 7.5
2014-Dec-19 01:34N 53°59' E 008°21'9 9.2
2014-Dec-19 00:33N 53°59' E 008°05'10 9.7
2014-Dec-18 23:33N 53°56' E 007°49'59 9.9
2014-Dec-18 17:33N 53°42' E 006°11'9 9.6
2014-Dec-18 16:33N 53°39' E 005°56'10 9.8
2014-Dec-18 15:33N 53°36' E 005°40'1010.2
2014-Dec-18 14:34N 53°33' E 005°24'1110.9
2014-Dec-18 13:33N 53°30' E 005°07'1111.0
2014-Dec-18 12:34N 53°25' E 004°50'10 9.8
2014-Dec-18 11:33N 53°18' E 004°39'1110.8
2014-Dec-18 10:30N 53°07' E 004°31'7 7.2
2014-Dec-18 09:34N 53°02' E 004°24'9 8.9
2014-Dec-18 08:34N 52°54' E 004°18'9 8.7
2014-Dec-18 07:34N 52°46' E 004°10'9 8.7
2014-Dec-18 06:34N 52°40' E 004°00'9 8.6
2014-Dec-18 05:34N 52°34' E 003°50'9 8.5
2014-Dec-18 04:33N 52°27' E 003°43'32 9.3
2014-Dec-18 01:08N 51°57' E 003°23'1010.3
2014-Dec-18 00:08N 51°47' E 003°17'10 9.9
2014-Dec-17 23:10N 51°38' E 003°21'711.4
2014-Dec-17 22:34N 51°32' E 003°26'9 9.0
2014-Dec-17 21:34N 51°26' E 003°37'4 3.9
2014-Dec-17 20:31N 51°27' E 003°43'0 0.0
2014-Dec-17 19:31N 51°27' E 003°43'0 0.0
2014-Dec-17 18:31N 51°27' E 003°43'0 0.0
2014-Dec-17 17:31N 51°27' E 003°43'0 0.0
2014-Dec-17 16:31N 51°27' E 003°43'0 0.0
2014-Dec-17 15:31N 51°27' E 003°43'0 0.0
2014-Dec-17 14:31N 51°27' E 003°43'0 0.0
2014-Dec-17 13:31N 51°27' E 003°43'0 0.0
2014-Dec-17 12:31N 51°27' E 003°43'0 0.0
2014-Dec-17 11:31N 51°27' E 003°43'0 0.0
2014-Dec-17 10:31N 51°27' E 003°43'0 0.0
2014-Dec-17 09:31N 51°27' E 003°43'0 0.0
2014-Dec-17 08:31N 51°27' E 003°43'1 0.6
2014-Dec-17 07:33N 51°27' E 003°42'9 9.0
2014-Dec-17 06:33N 51°30' E 003°28'1211.4
2014-Dec-17 05:33N 51°40' E 003°19'8 7.9
2014-Dec-17 04:33N 51°46' E 003°12'2 2.3
2014-Dec-17 03:32N 51°45' E 003°08'6 6.1
2014-Dec-17 02:31N 51°39' E 003°11'5 4.5
2014-Dec-17 01:31N 51°44' E 003°10'5 4.6
2014-Dec-17 00:29N 51°48' E 003°09'5310.8
2014-Dec-16 19:33N 52°28' E 002°12'1211.5
2014-Dec-16 18:33N 52°36' E 001°59'1211.9
2014-Dec-16 17:33N 52°46' E 001°48'1312.6
2014-Dec-16 16:33N 52°54' E 001°32'1413.6
2014-Dec-16 15:33N 53°03' E 001°14'2813.3
2014-Dec-16 13:29N 53°19' E 000°37'1213.2
2014-Dec-16 12:32N 53°28' E 000°22'1111.5
2014-Dec-16 11:33N 53°34' E 000°06'1110.8
2014-Dec-16 10:33N 53°38' W 000°11'1 0.5
2014-Dec-16 09:30N 53°38' W 000°11'0 0.0
2014-Dec-16 08:30N 53°38' W 000°11'0 0.0
2014-Dec-16 07:27N 53°38' W 000°11'0 0.0
2014-Dec-16 06:33N 53°38' W 000°11'0 0.0
2014-Dec-16 05:33N 53°38' W 000°11'0 0.0
2014-Dec-16 04:28N 53°38' W 000°11'0 0.0
2014-Dec-16 03:30N 53°38' W 000°11'0 0.0
2014-Dec-16 02:10N 53°38' W 000°11'0 0.0
2014-Dec-16 01:04N 53°38' W 000°11'0 0.0
2014-Dec-16 00:07N 53°38' W 000°11'0 0.0
2014-Dec-15 23:33N 53°38' W 000°11'0 0.0
2014-Dec-15 22:34N 53°38' W 000°11'0 0.0
2014-Dec-15 21:33N 53°38' W 000°11'0 0.0
2014-Dec-15 20:33N 53°38' W 000°11'0 0.0
2014-Dec-15 19:33N 53°38' W 000°11'0 0.0
2014-Dec-15 18:33N 53°38' W 000°11'0 0.0
2014-Dec-15 17:33N 53°38' W 000°11'0 0.0
2014-Dec-15 16:33N 53°38' W 000°11'0 0.0
2014-Dec-15 15:33N 53°38' W 000°11'0 0.0
2014-Dec-15 14:30N 53°38' W 000°11'0 0.0
2014-Dec-15 13:33N 53°38' W 000°11'0 0.0
2014-Dec-15 12:27N 53°38' W 000°11'0 0.0
2014-Dec-15 11:33N 53°38' W 000°11'0 0.0
2014-Dec-15 10:33N 53°38' W 000°11'0 0.0
2014-Dec-15 09:33N 53°38' W 000°11'0 0.0
2014-Dec-15 08:33N 53°38' W 000°11'0 0.0
2014-Dec-15 07:33N 53°38' W 000°11'0 0.0
2014-Dec-15 06:33N 53°38' W 000°11'0 0.0
2014-Dec-15 05:30N 53°38' W 000°11'0 0.0
2014-Dec-15 04:27N 53°38' W 000°11'0 0.0
2014-Dec-15 03:33N 53°38' W 000°11'0 0.0
2014-Dec-15 02:33N 53°38' W 000°11'0 0.0
2014-Dec-15 01:27N 53°38' W 000°11'0 0.0
2014-Dec-15 00:27N 53°38' W 000°11'0 0.0
2014-Dec-14 23:27N 53°38' W 000°11'0 0.0
2014-Dec-14 22:21N 53°38' W 000°11'0 0.0
2014-Dec-14 21:34N 53°38' W 000°11'0 0.0
2014-Dec-14 20:33N 53°38' W 000°11'0 0.0
2014-Dec-14 19:27N 53°38' W 000°11'0 0.0
2014-Dec-14 18:30N 53°38' W 000°11'0 0.0
2014-Dec-14 17:33N 53°38' W 000°11'0 0.0
2014-Dec-14 16:30N 53°38' W 000°11'0 0.0
2014-Dec-14 15:33N 53°38' W 000°11'0 0.0
2014-Dec-14 14:33N 53°38' W 000°11'0 0.0
2014-Dec-14 13:34N 53°38' W 000°11'0 0.0
2014-Dec-14 12:33N 53°38' W 000°11'0 0.0
2014-Dec-14 11:33N 53°38' W 000°11'0 0.0
2014-Dec-14 10:27N 53°38' W 000°11'0 0.0
2014-Dec-14 09:30N 53°38' W 000°11'0 0.1
2014-Dec-14 08:33N 53°38' W 000°11'5 5.3
2014-Dec-14 07:33N 53°36' W 000°03'1110.6
2014-Dec-14 06:33N 53°33' E 000°14'6 6.1
2014-Dec-14 05:31N 53°36' E 000°24'0 0.0
2014-Dec-14 04:25N 53°36' E 000°24'0 0.0
2014-Dec-14 03:25N 53°36' E 000°24'0 0.0
2014-Dec-14 02:31N 53°36' E 000°24'0 0.1
2014-Dec-14 01:31N 53°36' E 000°24'0 0.0
2014-Dec-14 00:28N 53°36' E 000°24'0 0.0
2014-Dec-13 23:28N 53°35' E 000°24'0 0.1
2014-Dec-13 22:31N 53°35' E 000°24'0 0.1
2014-Dec-13 21:31N 53°35' E 000°24'0 0.0
2014-Dec-13 20:19N 53°35' E 000°24'0 0.0
2014-Dec-13 19:25N 53°35' E 000°24'0 0.1
2014-Dec-13 18:28N 53°35' E 000°24'0 0.1
2014-Dec-13 17:31N 53°36' E 000°24'0 0.1
2014-Dec-13 16:28N 53°36' E 000°24'0 0.0
2014-Dec-13 15:31N 53°36' E 000°24'0 0.0
2014-Dec-13 14:31N 53°36' E 000°24'0 0.0
2014-Dec-13 13:31N 53°36' E 000°24'0 0.1
2014-Dec-13 12:31N 53°35' E 000°24'0 0.1
2014-Dec-13 11:28N 53°35' E 000°24'0 0.0
2014-Dec-13 10:29N 53°35' E 000°24'0 0.0
2014-Dec-13 09:33N 53°35' E 000°24'2 2.3
2014-Dec-13 08:33N 53°33' E 000°26'7 6.6
2014-Dec-13 07:32N 53°33' E 000°37'4 3.7
2014-Dec-13 06:33N 53°33' E 000°43'  
Track history (hours):
 
Tides and Currents Weather Stations Pressure Air Temp Water Temp Dewpoint Dewpoint Depression Visibility Wind Speed Wind Dir Waves Ship Positions

Robijn

Last reported at 2014-Dec-22 11:34 UTC. Time now 2014-Dec-22 12:02 UTC.
Position N 53°26' E 014°35'.

Length 90 m; draft 4.8 m.

Type: Cargo ship. MMSI: 245909000.

Date/timePositionNaut miles runAvg speedWind from/ knotsBaromVisibWave heightAir tempDewpointWater temp
2014-Dec-22 11:34N 53°26' E 014°35'0 0.0
2014-Dec-22 10:34N 53°26' E 014°35'0 0.0
2014-Dec-22 09:33N 53°26' E 014°35'0 0.0
2014-Dec-22 08:34N 53°26' E 014°35'0 0.0
2014-Dec-22 07:34N 53°26' E 014°35'0 0.0
2014-Dec-22 06:33N 53°26' E 014°35'0 0.0
2014-Dec-22 05:33N 53°26' E 014°35'0 0.0
2014-Dec-22 04:34N 53°26' E 014°35'0 0.0
2014-Dec-22 03:34N 53°26' E 014°35'0 0.0
2014-Dec-22 02:34N 53°26' E 014°35'0 0.0
2014-Dec-22 01:34N 53°26' E 014°35'0 0.0
2014-Dec-22 00:32N 53°26' E 014°35'0 0.0
2014-Dec-21 23:33N 53°26' E 014°35'0 0.0
2014-Dec-21 22:33N 53°26' E 014°35'0 0.0
2014-Dec-21 21:34N 53°26' E 014°35'0 0.0
2014-Dec-21 20:34N 53°26' E 014°35'0 0.0
2014-Dec-21 19:34N 53°26' E 014°35'0 0.0
2014-Dec-21 18:34N 53°26' E 014°35'0 0.0
2014-Dec-21 17:34N 53°26' E 014°35'0 0.0
2014-Dec-21 16:33N 53°26' E 014°35'0 0.0
2014-Dec-21 15:34N 53°26' E 014°35'0 0.0
2014-Dec-21 14:33N 53°26' E 014°35'0 0.0
2014-Dec-21 13:33N 53°26' E 014°35'0 0.0
2014-Dec-21 12:34N 53°26' E 014°35'0 0.0
2014-Dec-21 11:34N 53°26' E 014°35'0 0.0
2014-Dec-21 10:34N 53°26' E 014°35'0 0.0
2014-Dec-21 09:34N 53°26' E 014°35'0 0.0
2014-Dec-21 08:33N 53°26' E 014°35'0 0.0
2014-Dec-21 07:34N 53°26' E 014°35'0 0.0
2014-Dec-21 06:34N 53°26' E 014°35'0 0.0
2014-Dec-21 05:34N 53°26' E 014°35'0 0.0
2014-Dec-21 04:33N 53°26' E 014°35'0 0.0
2014-Dec-21 03:34N 53°26' E 014°35'0 0.0
2014-Dec-21 02:34N 53°26' E 014°35'0 0.0
2014-Dec-21 01:34N 53°26' E 014°35'0 0.0
2014-Dec-21 00:34N 53°26' E 014°35'0 0.0
2014-Dec-20 23:33N 53°26' E 014°35'0 0.0
2014-Dec-20 22:34N 53°26' E 014°35'0 0.0
2014-Dec-20 21:34N 53°26' E 014°35'0 0.0
2014-Dec-20 20:34N 53°26' E 014°35'0 0.0
2014-Dec-20 19:34N 53°26' E 014°35'0 0.0
2014-Dec-20 18:33N 53°26' E 014°35'0 0.0
2014-Dec-20 17:34N 53°26' E 014°35'0 0.0
2014-Dec-20 16:34N 53°26' E 014°35'0 0.0
2014-Dec-20 15:33N 53°26' E 014°35'0 0.0
2014-Dec-20 14:33N 53°26' E 014°35'4 4.2
2014-Dec-20 13:33N 53°30' E 014°37'9 9.0
2014-Dec-20 12:33N 53°39' E 014°34'1010.0
2014-Dec-20 11:34N 53°46' E 014°23'9 8.7
2014-Dec-20 10:33N 53°54' E 014°15'9 8.8
2014-Dec-20 09:33N 54°02' E 014°14'10 9.7
2014-Dec-20 08:34N 54°12' E 014°11'10 8.7
2014-Dec-20 07:23N 54°19' E 013°58'50 8.1
2014-Dec-20 01:09N 54°34' E 012°36'910.0
2014-Dec-20 00:17N 54°32' E 012°21'7 9.9
2014-Dec-19 23:33N 54°27' E 012°13'1010.3
2014-Dec-19 22:34N 54°25' E 011°55'1010.4
2014-Dec-19 21:33N 54°27' E 011°38'1111.0
2014-Dec-19 20:33N 54°32' E 011°20'1110.7
2014-Dec-19 19:33N 54°34' E 011°02'1010.0
2014-Dec-19 18:33N 54°32' E 010°45'10 9.9
2014-Dec-19 17:34N 54°30' E 010°29'9 9.4
2014-Dec-19 16:33N 54°26' E 010°14'5 5.2
2014-Dec-19 15:34N 54°22' E 010°08'8 7.8
2014-Dec-19 14:34N 54°21' E 009°55'8 7.1
2014-Dec-19 13:29N 54°18' E 009°43'9 7.9
2014-Dec-19 12:19N 54°12' E 009°32'6 8.2
2014-Dec-19 11:32N 54°09' E 009°22'7 7.3
2014-Dec-19 10:33N 54°02' E 009°18'7 6.8
2014-Dec-19 09:34N 53°56' E 009°13'3 3.2
2014-Dec-19 08:33N 53°54' E 009°09'0 0.0
2014-Dec-19 07:34N 53°54' E 009°09'0 0.5
2014-Dec-19 06:33N 53°54' E 009°09'4 3.9
2014-Dec-19 05:34N 53°52' E 009°03'7 7.2
2014-Dec-19 04:33N 53°50' E 008°51'6 6.4
2014-Dec-19 03:33N 53°54' E 008°42'7 6.6
2014-Dec-19 02:33N 53°58' E 008°33'7 7.5
2014-Dec-19 01:34N 53°59' E 008°21'9 9.2
2014-Dec-19 00:33N 53°59' E 008°05'10 9.7
2014-Dec-18 23:33N 53°56' E 007°49'59 9.9
2014-Dec-18 17:33N 53°42' E 006°11'9 9.6
2014-Dec-18 16:33N 53°39' E 005°56'10 9.8
2014-Dec-18 15:33N 53°36' E 005°40'1010.2
2014-Dec-18 14:34N 53°33' E 005°24'1110.9
2014-Dec-18 13:33N 53°30' E 005°07'1111.0
2014-Dec-18 12:34N 53°25' E 004°50'10 9.8
2014-Dec-18 11:33N 53°18' E 004°39'1110.8
2014-Dec-18 10:30N 53°07' E 004°31'7 7.2
2014-Dec-18 09:34N 53°02' E 004°24'9 8.9
2014-Dec-18 08:34N 52°54' E 004°18'9 8.7
2014-Dec-18 07:34N 52°46' E 004°10'9 8.7
2014-Dec-18 06:34N 52°40' E 004°00'9 8.6
2014-Dec-18 05:34N 52°34' E 003°50'9 8.5
2014-Dec-18 04:33N 52°27' E 003°43'32 9.3
2014-Dec-18 01:08N 51°57' E 003°23'1010.3
2014-Dec-18 00:08N 51°47' E 003°17'10 9.9
2014-Dec-17 23:10N 51°38' E 003°21'711.4
2014-Dec-17 22:34N 51°32' E 003°26'9 9.0
2014-Dec-17 21:34N 51°26' E 003°37'4 3.9
2014-Dec-17 20:31N 51°27' E 003°43'0 0.0
2014-Dec-17 19:31N 51°27' E 003°43'0 0.0
2014-Dec-17 18:31N 51°27' E 003°43'0 0.0
2014-Dec-17 17:31N 51°27' E 003°43'0 0.0
2014-Dec-17 16:31N 51°27' E 003°43'0 0.0
2014-Dec-17 15:31N 51°27' E 003°43'0 0.0
2014-Dec-17 14:31N 51°27' E 003°43'0 0.0
2014-Dec-17 13:31N 51°27' E 003°43'0 0.0
2014-Dec-17 12:31N 51°27' E 003°43'0 0.0
2014-Dec-17 11:31N 51°27' E 003°43'0 0.0
2014-Dec-17 10:31N 51°27' E 003°43'0 0.0
2014-Dec-17 09:31N 51°27' E 003°43'0 0.0
2014-Dec-17 08:31N 51°27' E 003°43'1 0.6
2014-Dec-17 07:33N 51°27' E 003°42'9 9.0
2014-Dec-17 06:33N 51°30' E 003°28'1211.4
2014-Dec-17 05:33N 51°40' E 003°19'8 7.9
2014-Dec-17 04:33N 51°46' E 003°12'2 2.3
2014-Dec-17 03:32N 51°45' E 003°08'6 6.1
2014-Dec-17 02:31N 51°39' E 003°11'5 4.5
2014-Dec-17 01:31N 51°44' E 003°10'5 4.6
2014-Dec-17 00:29N 51°48' E 003°09'5310.8
2014-Dec-16 19:33N 52°28' E 002°12'1211.5
2014-Dec-16 18:33N 52°36' E 001°59'1211.9
2014-Dec-16 17:33N 52°46' E 001°48'1312.6
2014-Dec-16 16:33N 52°54' E 001°32'1413.6
2014-Dec-16 15:33N 53°03' E 001°14'2813.3
2014-Dec-16 13:29N 53°19' E 000°37'1213.2
2014-Dec-16 12:32N 53°28' E 000°22'1111.5
2014-Dec-16 11:33N 53°34' E 000°06'1110.8
2014-Dec-16 10:33N 53°38' W 000°11'1 0.5
2014-Dec-16 09:30N 53°38' W 000°11'0 0.0
2014-Dec-16 08:30N 53°38' W 000°11'0 0.0
2014-Dec-16 07:27N 53°38' W 000°11'0 0.0
2014-Dec-16 06:33N 53°38' W 000°11'0 0.0
2014-Dec-16 05:33N 53°38' W 000°11'0 0.0
2014-Dec-16 04:28N 53°38' W 000°11'0 0.0
2014-Dec-16 03:30N 53°38' W 000°11'0 0.0
2014-Dec-16 02:10N 53°38' W 000°11'0 0.0
2014-Dec-16 01:04N 53°38' W 000°11'0 0.0
2014-Dec-16 00:07N 53°38' W 000°11'0 0.0
2014-Dec-15 23:33N 53°38' W 000°11'0 0.0
2014-Dec-15 22:34N 53°38' W 000°11'0 0.0
2014-Dec-15 21:33N 53°38' W 000°11'0 0.0
2014-Dec-15 20:33N 53°38' W 000°11'0 0.0
2014-Dec-15 19:33N 53°38' W 000°11'0 0.0
2014-Dec-15 18:33N 53°38' W 000°11'0 0.0
2014-Dec-15 17:33N 53°38' W 000°11'0 0.0
2014-Dec-15 16:33N 53°38' W 000°11'0 0.0
2014-Dec-15 15:33N 53°38' W 000°11'0 0.0
2014-Dec-15 14:30N 53°38' W 000°11'0 0.0
2014-Dec-15 13:33N 53°38' W 000°11'0 0.0
2014-Dec-15 12:27N 53°38' W 000°11'0 0.0
2014-Dec-15 11:33N 53°38' W 000°11'0 0.0
2014-Dec-15 10:33N 53°38' W 000°11'0 0.0
2014-Dec-15 09:33N 53°38' W 000°11'0 0.0
2014-Dec-15 08:33N 53°38' W 000°11'0 0.0
2014-Dec-15 07:33N 53°38' W 000°11'0 0.0
2014-Dec-15 06:33N 53°38' W 000°11'0 0.0
2014-Dec-15 05:30N 53°38' W 000°11'0 0.0
2014-Dec-15 04:27N 53°38' W 000°11'0 0.0
2014-Dec-15 03:33N 53°38' W 000°11'0 0.0
2014-Dec-15 02:33N 53°38' W 000°11'0 0.0
2014-Dec-15 01:27N 53°38' W 000°11'0 0.0
2014-Dec-15 00:27N 53°38' W 000°11'0 0.0
2014-Dec-14 23:27N 53°38' W 000°11'0 0.0
2014-Dec-14 22:21N 53°38' W 000°11'0 0.0
2014-Dec-14 21:34N 53°38' W 000°11'0 0.0
2014-Dec-14 20:33N 53°38' W 000°11'0 0.0
2014-Dec-14 19:27N 53°38' W 000°11'0 0.0
2014-Dec-14 18:30N 53°38' W 000°11'0 0.0
2014-Dec-14 17:33N 53°38' W 000°11'0 0.0
2014-Dec-14 16:30N 53°38' W 000°11'0 0.0
2014-Dec-14 15:33N 53°38' W 000°11'0 0.0
2014-Dec-14 14:33N 53°38' W 000°11'0 0.0
2014-Dec-14 13:34N 53°38' W 000°11'0 0.0
2014-Dec-14 12:33N 53°38' W 000°11'0 0.0
2014-Dec-14 11:33N 53°38' W 000°11'0 0.0
2014-Dec-14 10:27N 53°38' W 000°11'0 0.0
2014-Dec-14 09:30N 53°38' W 000°11'0 0.1
2014-Dec-14 08:33N 53°38' W 000°11'5 5.3
2014-Dec-14 07:33N 53°36' W 000°03'1110.6
2014-Dec-14 06:33N 53°33' E 000°14'6 6.1
2014-Dec-14 05:31N 53°36' E 000°24'0 0.0
2014-Dec-14 04:25N 53°36' E 000°24'0 0.0
2014-Dec-14 03:25N 53°36' E 000°24'0 0.0
2014-Dec-14 02:31N 53°36' E 000°24'0 0.1
2014-Dec-14 01:31N 53°36' E 000°24'0 0.0
2014-Dec-14 00:28N 53°36' E 000°24'0 0.0
2014-Dec-13 23:28N 53°35' E 000°24'0 0.1
2014-Dec-13 22:31N 53°35' E 000°24'0 0.1
2014-Dec-13 21:31N 53°35' E 000°24'0 0.0
2014-Dec-13 20:19N 53°35' E 000°24'0 0.0
2014-Dec-13 19:25N 53°35' E 000°24'0 0.1
2014-Dec-13 18:28N 53°35' E 000°24'0 0.1
2014-Dec-13 17:31N 53°36' E 000°24'0 0.1
2014-Dec-13 16:28N 53°36' E 000°24'0 0.0
2014-Dec-13 15:31N 53°36' E 000°24'0 0.0
2014-Dec-13 14:31N 53°36' E 000°24'0 0.0
2014-Dec-13 13:31N 53°36' E 000°24'0 0.1
2014-Dec-13 12:31N 53°35' E 000°24'0 0.1
2014-Dec-13 11:28N 53°35' E 000°24'0 0.0
2014-Dec-13 10:29N 53°35' E 000°24'0 0.0
2014-Dec-13 09:33N 53°35' E 000°24'2 2.3
2014-Dec-13 08:33N 53°33' E 000°26'7 6.6
2014-Dec-13 07:32N 53°33' E 000°37'4 3.7
2014-Dec-13 06:33N 53°33' E 000°43'  

Dump ship's entire track history